PWSweather.com
Personal Weather Stations
Station Observations
CARNOUSTIE
Pambride, CarnoustieGB DD7 6DY

PambrideCarnoustieGB DD7 6DY

Lat: 56.50889, Lon: -2.7051

Elevation: 105

Station Type: Oregon Scientific WMR200

www.carnoustieweather.co.uk

High Low Average
Temperature 71.0°F21.7°C 46.2°F7.9°C 56.3°F13.5°C
Dew Point 61.9°F16.6°C 36.4°F2.4°C 44.9°F7.2°C
Winds 10.4 mph 16.7 kmh Calm Calm 3.0 mph SW4.8 kmh SW
Wind Gusts 12.7 mph20.4 kmh -- 4.0 mph6.4 kmh
Humidity 78% 49% 66%
Pressure 30.03 in1016.9 mb 29.77 in1008.1 mb -
Precipitation 0.21 in5.3 mm - -
Hour Temp Dew Point Humidity Winds Wind Gusts Pressure Precip Precip Rate Daily Precip Total
12:00 AM 49.3°F9.6°C 39.2°F4.0°C 68% 4.6 mph W7.4 kmh W 5.8 mph9.3 kmh 29.77 in1008.1 mb - 0.00 in0.0 mm 0.00 in0.0 mm
12:10 AM 48.9°F9.4°C 38.8°F3.8°C 68% 4.6 mph W7.4 kmh W 4.6 mph7.4 kmh 29.77 in1008.1 mb - 0.00 in0.0 mm 0.00 in0.0 mm
12:20 AM 48.7°F9.3°C 38.6°F3.7°C 68% 2.3 mph WSW3.7 kmh WSW 2.3 mph3.7 kmh 29.80 in1009.1 mb - 0.00 in0.0 mm 0.00 in0.0 mm
12:30 AM 48.2°F9.0°C 37.8°F3.2°C 67% 2.3 mph WNW3.7 kmh WNW 2.3 mph3.7 kmh 29.80 in1009.1 mb - 0.00 in0.0 mm 0.00 in0.0 mm
12:40 AM 48.0°F8.9°C 37.6°F3.1°C 67% 3.5 mph W5.6 kmh W 3.5 mph5.6 kmh 29.80 in1009.1 mb - 0.00 in0.0 mm 0.00 in0.0 mm
12:50 AM 47.8°F8.8°C 37.4°F3.0°C 67% 3.5 mph NW5.6 kmh NW 3.5 mph5.6 kmh 29.80 in1009.1 mb - 0.00 in0.0 mm 0.00 in0.0 mm
01:00 AM 47.5°F8.6°C 37.1°F2.8°C 67% 2.3 mph WNW3.7 kmh WNW 3.5 mph5.6 kmh 29.80 in1009.1 mb - 0.00 in0.0 mm 0.00 in0.0 mm
01:10 AM 47.3°F8.5°C 36.9°F2.7°C 67% 1.2 mph WSW1.9 kmh WSW 2.3 mph3.7 kmh 29.80 in1009.1 mb - 0.00 in0.0 mm 0.00 in0.0 mm
01:20 AM 46.8°F8.2°C 36.4°F2.4°C 67% 2.3 mph W3.7 kmh W 2.3 mph3.7 kmh 29.80 in1009.1 mb - 0.00 in0.0 mm 0.00 in0.0 mm
01:30 AM 46.6°F8.1°C 36.6°F2.6°C 68% 3.5 mph WNW5.6 kmh WNW 3.5 mph5.6 kmh 29.80 in1009.1 mb - 0.00 in0.0 mm 0.00 in0.0 mm
01:40 AM 46.3°F7.9°C 36.7°F2.6°C 69% 2.3 mph W3.7 kmh W 3.5 mph5.6 kmh 29.80 in1009.1 mb - 0.00 in0.0 mm 0.00 in0.0 mm
01:50 AM 46.2°F7.9°C 36.6°F2.6°C 69% 3.5 mph W5.6 kmh W 3.5 mph5.6 kmh 29.80 in1009.1 mb - 0.00 in0.0 mm 0.00 in0.0 mm
02:00 AM 46.2°F7.9°C 36.6°F2.6°C 69% 3.5 mph WSW5.6 kmh WSW 4.6 mph7.4 kmh 29.80 in1009.1 mb - 0.00 in0.0 mm 0.00 in0.0 mm
02:10 AM 46.4°F8.0°C 37.1°F2.8°C 70% 3.5 mph WSW5.6 kmh WSW 4.6 mph7.4 kmh 29.80 in1009.1 mb - 0.00 in0.0 mm 0.00 in0.0 mm
02:20 AM 46.7°F8.2°C 37.8°F3.2°C 71% 3.5 mph W5.6 kmh W 4.6 mph7.4 kmh 29.80 in1009.1 mb - 0.00 in0.0 mm 0.00 in0.0 mm
02:30 AM 46.9°F8.3°C 38.0°F3.3°C 71% 3.5 mph WNW5.6 kmh WNW 3.5 mph5.6 kmh 29.80 in1009.1 mb - 0.00 in0.0 mm 0.00 in0.0 mm
02:40 AM 46.9°F8.3°C 38.4°F3.6°C 72% 4.6 mph W7.4 kmh W 4.6 mph7.4 kmh 29.80 in1009.1 mb - 0.00 in0.0 mm 0.00 in0.0 mm
02:50 AM 46.9°F8.3°C 38.4°F3.6°C 72% 4.6 mph W7.4 kmh W 5.8 mph9.3 kmh 29.80 in1009.1 mb - 0.00 in0.0 mm 0.00 in0.0 mm
03:00 AM 47.5°F8.6°C 39.3°F4.1°C 73% 3.5 mph WSW5.6 kmh WSW 5.8 mph9.3 kmh 29.80 in1009.1 mb - 0.00 in0.0 mm 0.00 in0.0 mm
03:10 AM 47.2°F8.4°C 39.0°F3.9°C 73% 5.8 mph WNW9.3 kmh WNW 6.9 mph11.1 kmh 29.80 in1009.1 mb - 0.00 in0.0 mm 0.00 in0.0 mm
03:20 AM 47.1°F8.4°C 39.3°F4.1°C 74% 4.6 mph W7.4 kmh W 5.8 mph9.3 kmh 29.80 in1009.1 mb - 0.00 in0.0 mm 0.00 in0.0 mm
03:30 AM 47.3°F8.5°C 39.4°F4.1°C 74% 4.6 mph W7.4 kmh W 4.6 mph7.4 kmh 29.77 in1008.1 mb - 0.00 in0.0 mm 0.00 in0.0 mm
03:40 AM 47.3°F8.5°C 39.4°F4.1°C 74% 3.5 mph W5.6 kmh W 4.6 mph7.4 kmh 29.77 in1008.1 mb - 0.00 in0.0 mm 0.00 in0.0 mm
03:50 AM 47.1°F8.4°C 38.9°F3.8°C 73% Calm Calm -- 29.80 in1009.1 mb - 0.00 in0.0 mm 0.00 in0.0 mm
04:00 AM 46.4°F8.0°C 38.2°F3.4°C 73% 2.3 mph ESE3.7 kmh ESE 3.5 mph5.6 kmh 29.80 in1009.1 mb - 0.00 in0.0 mm 0.00 in0.0 mm
04:10 AM 46.4°F8.0°C 38.2°F3.4°C 73% Calm Calm -- 29.80 in1009.1 mb - 0.00 in0.0 mm 0.00 in0.0 mm
04:20 AM 46.4°F8.0°C 38.2°F3.4°C 73% 2.3 mph NNE3.7 kmh NNE 2.3 mph3.7 kmh 29.80 in1009.1 mb - 0.00 in0.0 mm 0.00 in0.0 mm
04:30 AM 46.6°F8.1°C 38.4°F3.6°C 73% 2.3 mph N3.7 kmh N 3.5 mph5.6 kmh 29.80 in1009.1 mb - 0.00 in0.0 mm 0.00 in0.0 mm
04:40 AM 46.9°F8.3°C 39.1°F3.9°C 74% 3.5 mph N5.6 kmh N 3.5 mph5.6 kmh 29.80 in1009.1 mb - 0.00 in0.0 mm 0.00 in0.0 mm
04:50 AM 47.3°F8.5°C 39.4°F4.1°C 74% 1.2 mph NNW1.9 kmh NNW 2.3 mph3.7 kmh 29.80 in1009.1 mb - 0.00 in0.0 mm 0.00 in0.0 mm
05:00 AM 47.7°F8.7°C 39.8°F4.3°C 74% Calm Calm -- 29.80 in1009.1 mb - 0.00 in0.0 mm 0.00 in0.0 mm
05:10 AM 48.0°F8.9°C 40.1°F4.5°C 74% 2.3 mph NW3.7 kmh NW 2.3 mph3.7 kmh 29.80 in1009.1 mb - 0.00 in0.0 mm 0.00 in0.0 mm
05:20 AM 48.6°F9.2°C 40.6°F4.8°C 74% 3.5 mph N5.6 kmh N 4.6 mph7.4 kmh 29.80 in1009.1 mb - 0.00 in0.0 mm 0.00 in0.0 mm
05:30 AM 49.3°F9.6°C 41.7°F5.4°C 75% 2.3 mph NNW3.7 kmh NNW 3.5 mph5.6 kmh 29.80 in1009.1 mb - 0.00 in0.0 mm 0.00 in0.0 mm
05:40 AM 50.0°F10.0°C 42.4°F5.8°C 75% 1.2 mph WNW1.9 kmh WNW 2.3 mph3.7 kmh 29.80 in1009.1 mb - 0.00 in0.0 mm 0.00 in0.0 mm
05:50 AM 50.2°F10.1°C 42.2°F5.7°C 74% Calm Calm -- 29.80 in1009.1 mb - 0.00 in0.0 mm 0.00 in0.0 mm
06:00 AM 50.5°F10.3°C 42.6°F5.9°C 74% 1.2 mph SE1.9 kmh SE 2.3 mph3.7 kmh 29.80 in1009.1 mb - 0.00 in0.0 mm 0.00 in0.0 mm
06:10 AM 50.9°F10.5°C 42.9°F6.1°C 74% Calm Calm -- 29.80 in1009.1 mb - 0.00 in0.0 mm 0.00 in0.0 mm
06:20 AM 51.4°F10.8°C 43.4°F6.3°C 74% 2.3 mph WNW3.7 kmh WNW 2.3 mph3.7 kmh 29.80 in1009.1 mb - 0.00 in0.0 mm 0.00 in0.0 mm
06:30 AM 51.9°F11.1°C 43.9°F6.6°C 74% Calm Calm 2.3 mph3.7 kmh 29.80 in1009.1 mb - 0.00 in0.0 mm 0.00 in0.0 mm
06:40 AM 52.8°F11.6°C 44.7°F7.1°C 74% 2.3 mph WSW3.7 kmh WSW 3.5 mph5.6 kmh 29.80 in1009.1 mb - 0.00 in0.0 mm 0.00 in0.0 mm
06:50 AM 53.4°F11.9°C 45.0°F7.2°C 73% 2.3 mph WSW3.7 kmh WSW 3.5 mph5.6 kmh 29.80 in1009.1 mb - 0.00 in0.0 mm 0.00 in0.0 mm
07:00 AM 54.1°F12.3°C 44.9°F7.2°C 71% 3.5 mph WSW5.6 kmh WSW 4.6 mph7.4 kmh 29.77 in1008.1 mb - 0.00 in0.0 mm 0.00 in0.0 mm
07:10 AM 55.3°F12.9°C 45.3°F7.4°C 69% 3.5 mph W5.6 kmh W 4.6 mph7.4 kmh 29.77 in1008.1 mb - 0.00 in0.0 mm 0.00 in0.0 mm
07:20 AM 57.2°F14.0°C 45.1°F7.3°C 64% 4.6 mph WSW7.4 kmh WSW 5.8 mph9.3 kmh 29.80 in1009.1 mb - 0.00 in0.0 mm 0.00 in0.0 mm
07:30 AM 58.1°F14.5°C 44.3°F6.8°C 60% 4.6 mph WSW7.4 kmh WSW 5.8 mph9.3 kmh 29.80 in1009.1 mb - 0.00 in0.0 mm 0.00 in0.0 mm
07:40 AM 58.3°F14.6°C 43.1°F6.2°C 57% 4.6 mph WSW7.4 kmh WSW 5.8 mph9.3 kmh 29.80 in1009.1 mb - 0.00 in0.0 mm 0.00 in0.0 mm
07:50 AM 58.8°F14.9°C 43.1°F6.2°C 56% 4.6 mph WSW7.4 kmh WSW 4.6 mph7.4 kmh 29.77 in1008.1 mb - 0.00 in0.0 mm 0.00 in0.0 mm
08:00 AM 59.4°F15.2°C 42.7°F5.9°C 54% 3.5 mph WSW5.6 kmh WSW 5.8 mph9.3 kmh 29.80 in1009.1 mb - 0.00 in0.0 mm 0.00 in0.0 mm
08:10 AM 59.5°F15.3°C 42.9°F6.1°C 54% 3.5 mph SW5.6 kmh SW 4.6 mph7.4 kmh 29.80 in1009.1 mb - 0.00 in0.0 mm 0.00 in0.0 mm
08:20 AM 59.2°F15.1°C 42.5°F5.8°C 54% 3.5 mph SW5.6 kmh SW 5.8 mph9.3 kmh 29.80 in1009.1 mb - 0.00 in0.0 mm 0.00 in0.0 mm
08:30 AM 58.6°F14.8°C 42.5°F5.8°C 55% 6.9 mph WSW11.1 kmh WSW 6.9 mph11.1 kmh 29.80 in1009.1 mb - 0.00 in0.0 mm 0.00 in0.0 mm
08:40 AM 58.5°F14.7°C 42.8°F6.0°C 56% 4.6 mph N7.4 kmh N 5.8 mph9.3 kmh 29.80 in1009.1 mb - 0.00 in0.0 mm 0.00 in0.0 mm
08:50 AM 58.9°F14.9°C 43.7°F6.5°C 57% 4.6 mph WSW7.4 kmh WSW 5.8 mph9.3 kmh 29.80 in1009.1 mb - 0.00 in0.0 mm 0.00 in0.0 mm
09:00 AM 59.9°F15.5°C 44.2°F6.8°C 56% 5.8 mph SW9.3 kmh SW 6.9 mph11.1 kmh 29.82 in1009.8 mb - 0.00 in0.0 mm 0.00 in0.0 mm
09:10 AM 60.4°F15.8°C 43.2°F6.2°C 53% 5.8 mph WSW9.3 kmh WSW 8.1 mph13.0 kmh 29.82 in1009.8 mb - 0.00 in0.0 mm 0.00 in0.0 mm
09:20 AM 60.6°F15.9°C 43.9°F6.6°C 54% 5.8 mph WSW9.3 kmh WSW 6.9 mph11.1 kmh 29.82 in1009.8 mb - 0.00 in0.0 mm 0.00 in0.0 mm
09:30 AM 61.0°F16.1°C 47.4°F8.6°C 61% 4.6 mph WSW7.4 kmh WSW 5.8 mph9.3 kmh 29.82 in1009.8 mb - 0.00 in0.0 mm 0.00 in0.0 mm
09:40 AM 61.0°F16.1°C 49.1°F9.5°C 65% 5.8 mph W9.3 kmh W 6.9 mph11.1 kmh 29.82 in1009.8 mb - 0.00 in0.0 mm 0.00 in0.0 mm
09:50 AM 61.7°F16.5°C 49.4°F9.7°C 64% 2.3 mph WSW3.7 kmh WSW 4.6 mph7.4 kmh 29.82 in1009.8 mb - 0.00 in0.0 mm 0.00 in0.0 mm
10:00 AM 62.1°F16.7°C 46.2°F7.9°C 56% 3.5 mph WNW5.6 kmh WNW 4.6 mph7.4 kmh 29.82 in1009.8 mb - 0.00 in0.0 mm 0.00 in0.0 mm
10:10 AM 62.2°F16.8°C 45.4°F7.4°C 54% 4.6 mph WSW7.4 kmh WSW 6.9 mph11.1 kmh 29.82 in1009.8 mb - 0.00 in0.0 mm 0.00 in0.0 mm
10:20 AM 62.2°F16.8°C 46.3°F7.9°C 56% 4.6 mph WSW7.4 kmh WSW 5.8 mph9.3 kmh 29.82 in1009.8 mb - 0.00 in0.0 mm 0.00 in0.0 mm
10:30 AM 62.4°F16.9°C 52.9°F11.6°C 71% 3.5 mph SW5.6 kmh SW 4.6 mph7.4 kmh 29.82 in1009.8 mb - 0.00 in0.0 mm 0.00 in0.0 mm
10:40 AM 63.0°F17.2°C 49.7°F9.8°C 62% 4.6 mph SW7.4 kmh SW 6.9 mph11.1 kmh 29.82 in1009.8 mb - 0.00 in0.0 mm 0.00 in0.0 mm
10:50 AM 63.4°F17.4°C 51.0°F10.6°C 64% 3.5 mph W5.6 kmh W 4.6 mph7.4 kmh 29.86 in1011.2 mb - 0.00 in0.0 mm 0.00 in0.0 mm
11:00 AM 64.4°F18.0°C 52.0°F11.1°C 64% 6.9 mph SW11.1 kmh SW 9.2 mph14.8 kmh 29.86 in1011.2 mb - 0.00 in0.0 mm 0.00 in0.0 mm
11:10 AM 64.4°F18.0°C 51.5°F10.8°C 63% 4.6 mph WSW7.4 kmh WSW 5.8 mph9.3 kmh 29.86 in1011.2 mb - 0.00 in0.0 mm 0.00 in0.0 mm
11:20 AM 65.1°F18.4°C 53.9°F12.2°C 67% 3.5 mph SSW5.6 kmh SSW 3.5 mph5.6 kmh 29.86 in1011.2 mb - 0.00 in0.0 mm 0.00 in0.0 mm
11:30 AM 66.2°F19.0°C 54.1°F12.3°C 65% 2.3 mph SSW3.7 kmh SSW 2.3 mph3.7 kmh 29.86 in1011.2 mb - 0.00 in0.0 mm 0.00 in0.0 mm
11:40 AM 65.8°F18.8°C 52.9°F11.6°C 63% 4.6 mph SSW7.4 kmh SSW 5.8 mph9.3 kmh 29.86 in1011.2 mb - 0.00 in0.0 mm 0.00 in0.0 mm
11:50 AM 66.8°F19.3°C 53.8°F12.1°C 63% 5.8 mph WSW9.3 kmh WSW 8.1 mph13.0 kmh 29.86 in1011.2 mb - 0.00 in0.0 mm 0.00 in0.0 mm
12:00 PM 67.5°F19.7°C 53.6°F12.0°C 61% 5.8 mph S9.3 kmh S 8.1 mph13.0 kmh 29.86 in1011.2 mb - 0.00 in0.0 mm 0.00 in0.0 mm
12:10 PM 68.5°F20.3°C 50.2°F10.1°C 52% 6.9 mph SW11.1 kmh SW 10.4 mph16.7 kmh 29.86 in1011.2 mb - 0.00 in0.0 mm 0.00 in0.0 mm
12:20 PM 66.4°F19.1°C 46.6°F8.1°C 49% 8.1 mph WSW13.0 kmh WSW 10.4 mph16.7 kmh 29.86 in1011.2 mb - 0.00 in0.0 mm 0.00 in0.0 mm
12:30 PM 62.4°F16.9°C 50.4°F10.2°C 65% 8.1 mph WNW13.0 kmh WNW 9.2 mph14.8 kmh 29.86 in1011.2 mb - 0.02 in0.5 mm 0.02 in0.5 mm
12:40 PM 60.2°F15.7°C 50.4°F10.2°C 70% 4.6 mph WNW7.4 kmh WNW 6.9 mph11.1 kmh 29.86 in1011.2 mb - 0.05 in1.3 mm 0.05 in1.3 mm
12:50 PM 59.7°F15.4°C 43.5°F6.4°C 55% 3.5 mph W5.6 kmh W 3.5 mph5.6 kmh 29.86 in1011.2 mb - 0.07 in1.8 mm 0.07 in1.8 mm
01:00 PM 60.5°F15.8°C 45.2°F7.3°C 57% Calm Calm 2.3 mph3.7 kmh 29.86 in1011.2 mb - 0.07 in1.8 mm 0.07 in1.8 mm
01:10 PM 61.9°F16.6°C 46.9°F8.3°C 58% 1.2 mph SW1.9 kmh SW -- 29.86 in1011.2 mb - 0.09 in2.3 mm 0.09 in2.3 mm
01:20 PM 62.9°F17.2°C 47.0°F8.3°C 56% 1.2 mph SW1.9 kmh SW 2.3 mph3.7 kmh 29.86 in1011.2 mb - 0.09 in2.3 mm 0.09 in2.3 mm
01:30 PM 66.9°F19.4°C 50.2°F10.1°C 55% 2.3 mph SW3.7 kmh SW 4.6 mph7.4 kmh 29.86 in1011.2 mb - 0.07 in1.8 mm 0.09 in2.3 mm
01:40 PM 69.8°F21.0°C 56.2°F13.4°C 62% 1.2 mph SSW1.9 kmh SSW 2.3 mph3.7 kmh 29.86 in1011.2 mb - 0.03 in0.8 mm 0.09 in2.3 mm
01:50 PM 68.9°F20.5°C 58.7°F14.8°C 70% 2.3 mph S3.7 kmh S 3.5 mph5.6 kmh 29.88 in1011.9 mb - 0.02 in0.5 mm 0.09 in2.3 mm
02:00 PM 67.3°F19.6°C 55.5°F13.1°C 66% 3.5 mph SSE5.6 kmh SSE 4.6 mph7.4 kmh 29.88 in1011.9 mb - 0.02 in0.5 mm 0.09 in2.3 mm
02:10 PM 65.9°F18.8°C 52.1°F11.2°C 61% 3.5 mph S5.6 kmh S 3.5 mph5.6 kmh 29.88 in1011.9 mb - 0.00 in0.0 mm 0.09 in2.3 mm
02:20 PM 63.6°F17.6°C 52.1°F11.2°C 66% 8.1 mph WNW13.0 kmh WNW 8.1 mph13.0 kmh 29.88 in1011.9 mb - 0.00 in0.0 mm 0.09 in2.3 mm
02:30 PM 60.4°F15.8°C 48.2°F9.0°C 64% 10.4 mph WNW16.7 kmh WNW 12.7 mph20.4 kmh 29.91 in1012.9 mb - 0.00 in0.0 mm 0.09 in2.3 mm
02:40 PM 58.2°F14.6°C 46.1°F7.8°C 64% 8.1 mph NW13.0 kmh NW 10.4 mph16.7 kmh 29.91 in1012.9 mb - 0.00 in0.0 mm 0.09 in2.3 mm
02:50 PM 56.6°F13.7°C 40.6°F4.8°C 55% 8.1 mph NW13.0 kmh NW 8.1 mph13.0 kmh 29.91 in1012.9 mb - 0.02 in0.5 mm 0.10 in2.5 mm
03:00 PM 55.8°F13.2°C 41.2°F5.1°C 58% 4.6 mph NW7.4 kmh NW 5.8 mph9.3 kmh 29.91 in1012.9 mb - 0.04 in1.0 mm 0.12 in3.0 mm
03:10 PM 55.4°F13.0°C 41.3°F5.2°C 59% 3.5 mph NNW5.6 kmh NNW 3.5 mph5.6 kmh 29.91 in1012.9 mb - 0.04 in1.0 mm 0.12 in3.0 mm
03:20 PM 55.9°F13.3°C 43.1°F6.2°C 62% 2.3 mph NNE3.7 kmh NNE 3.5 mph5.6 kmh 29.91 in1012.9 mb - 0.07 in1.8 mm 0.16 in4.1 mm
03:30 PM 56.9°F13.8°C 44.8°F7.1°C 64% 2.3 mph NE3.7 kmh NE 3.5 mph5.6 kmh 29.91 in1012.9 mb - 0.10 in2.5 mm 0.19 in4.8 mm
03:40 PM 57.6°F14.2°C 45.9°F7.7°C 65% 4.6 mph NNE7.4 kmh NNE 5.8 mph9.3 kmh 29.91 in1012.9 mb - 0.10 in2.5 mm 0.19 in4.8 mm
03:50 PM 58.6°F14.8°C 47.7°F8.7°C 67% 4.6 mph NE7.4 kmh NE 6.9 mph11.1 kmh 29.91 in1012.9 mb - 0.09 in2.3 mm 0.19 in4.8 mm
04:00 PM 62.5°F16.9°C 51.8°F11.0°C 68% 5.8 mph NNE9.3 kmh NNE 6.9 mph11.1 kmh 29.91 in1012.9 mb - 0.07 in1.8 mm 0.19 in4.8 mm
04:10 PM 66.6°F19.2°C 51.8°F11.0°C 59% 2.3 mph NE3.7 kmh NE 3.5 mph5.6 kmh 29.91 in1012.9 mb - 0.07 in1.8 mm 0.19 in4.8 mm
04:20 PM 68.1°F20.1°C 58.3°F14.6°C 71% 3.5 mph E5.6 kmh E 3.5 mph5.6 kmh 29.91 in1012.9 mb - 0.03 in0.8 mm 0.19 in4.8 mm
04:30 PM 71.0°F21.7°C 61.9°F16.6°C 73% 3.5 mph E5.6 kmh E 4.6 mph7.4 kmh 29.94 in1013.9 mb - 0.00 in0.0 mm 0.19 in4.8 mm
04:40 PM 69.1°F20.6°C 58.5°F14.7°C 69% 3.5 mph NE5.6 kmh NE 3.5 mph5.6 kmh 29.94 in1013.9 mb - 0.00 in0.0 mm 0.19 in4.8 mm
04:50 PM 67.6°F19.8°C 56.2°F13.4°C 67% 2.3 mph WNW3.7 kmh WNW 3.5 mph5.6 kmh 29.94 in1013.9 mb - 0.00 in0.0 mm 0.19 in4.8 mm
05:00 PM 66.4°F19.1°C 55.5°F13.1°C 68% 3.5 mph NE5.6 kmh NE 5.8 mph9.3 kmh 29.94 in1013.9 mb - 0.00 in0.0 mm 0.19 in4.8 mm
05:10 PM 64.4°F18.0°C 54.0°F12.2°C 69% 5.8 mph N9.3 kmh N 8.1 mph13.0 kmh 29.94 in1013.9 mb - 0.00 in0.0 mm 0.19 in4.8 mm
05:20 PM 61.1°F16.2°C 48.0°F8.9°C 62% 5.8 mph NW9.3 kmh NW 8.1 mph13.0 kmh 29.94 in1013.9 mb - 0.00 in0.0 mm 0.19 in4.8 mm
05:30 PM 59.2°F15.1°C 49.8°F9.9°C 71% 6.9 mph NW11.1 kmh NW 8.1 mph13.0 kmh 29.94 in1013.9 mb - 0.00 in0.0 mm 0.19 in4.8 mm
05:40 PM 58.9°F14.9°C 43.2°F6.2°C 56% 4.6 mph NW7.4 kmh NW 4.6 mph7.4 kmh 29.94 in1013.9 mb - 0.02 in0.5 mm 0.21 in5.3 mm
05:50 PM 61.6°F16.4°C 48.4°F9.1°C 62% 2.3 mph NW3.7 kmh NW 3.5 mph5.6 kmh 29.94 in1013.9 mb - 0.02 in0.5 mm 0.21 in5.3 mm
06:00 PM 64.2°F17.9°C 49.2°F9.6°C 58% 2.3 mph N3.7 kmh N 2.3 mph3.7 kmh 29.94 in1013.9 mb - 0.02 in0.5 mm 0.21 in5.3 mm
06:10 PM 66.4°F19.1°C 48.7°F9.3°C 53% 1.2 mph ENE1.9 kmh ENE 2.3 mph3.7 kmh 29.94 in1013.9 mb - 0.02 in0.5 mm 0.21 in5.3 mm
06:20 PM 64.9°F18.3°C 48.4°F9.1°C 55% 2.3 mph 3.7 kmh 3.5 mph5.6 kmh 29.97 in1014.9 mb - 0.02 in0.5 mm 0.21 in5.3 mm
06:30 PM 67.3°F19.6°C 50.5°F10.3°C 55% Calm Calm -- 29.97 in1014.9 mb - 0.02 in0.5 mm 0.21 in5.3 mm
06:40 PM 67.9°F19.9°C 57.3°F14.1°C 69% 1.2 mph W1.9 kmh W 2.3 mph3.7 kmh 29.97 in1014.9 mb - 0.00 in0.0 mm 0.21 in5.3 mm
06:50 PM 68.5°F20.3°C 54.6°F12.6°C 61% Calm Calm -- 29.97 in1014.9 mb - 0.00 in0.0 mm 0.21 in5.3 mm
07:00 PM 68.2°F20.1°C 59.2°F15.1°C 73% Calm Calm -- 29.97 in1014.9 mb - 0.00 in0.0 mm 0.21 in5.3 mm
07:10 PM 67.2°F19.6°C 58.3°F14.6°C 73% 1.2 mph ESE1.9 kmh ESE 2.3 mph3.7 kmh 29.97 in1014.9 mb - 0.00 in0.0 mm 0.21 in5.3 mm
07:20 PM 64.9°F18.3°C 56.7°F13.7°C 75% 1.2 mph SE1.9 kmh SE 2.3 mph3.7 kmh 29.97 in1014.9 mb - 0.00 in0.0 mm 0.21 in5.3 mm
07:30 PM 61.6°F16.4°C 54.7°F12.6°C 78% 3.5 mph ESE5.6 kmh ESE 3.5 mph5.6 kmh 29.94 in1013.9 mb - 0.00 in0.0 mm 0.21 in5.3 mm
07:40 PM 59.1°F15.1°C 51.2°F10.7°C 75% 1.2 mph E1.9 kmh E 2.3 mph3.7 kmh 29.94 in1013.9 mb - 0.00 in0.0 mm 0.21 in5.3 mm
07:50 PM 57.3°F14.1°C 41.3°F5.2°C 55% 1.2 mph E1.9 kmh E 2.3 mph3.7 kmh 29.97 in1014.9 mb - 0.00 in0.0 mm 0.21 in5.3 mm
08:00 PM 56.1°F13.4°C 41.5°F5.3°C 58% Calm Calm -- 29.97 in1014.9 mb - 0.00 in0.0 mm 0.21 in5.3 mm
08:10 PM 55.0°F12.8°C 41.8°F5.4°C 61% Calm Calm -- 29.97 in1014.9 mb - 0.00 in0.0 mm 0.21 in5.3 mm
08:20 PM 54.1°F12.3°C 41.4°F5.2°C 62% Calm Calm -- 29.97 in1014.9 mb - 0.00 in0.0 mm 0.21 in5.3 mm
08:30 PM 53.4°F11.9°C 41.5°F5.3°C 64% Calm Calm -- 30.00 in1015.9 mb - 0.00 in0.0 mm 0.21 in5.3 mm
08:40 PM 52.7°F11.5°C 41.3°F5.2°C 65% 1.2 mph E1.9 kmh E 1.2 mph1.9 kmh 30.00 in1015.9 mb - 0.00 in0.0 mm 0.21 in5.3 mm
08:50 PM 52.3°F11.3°C 40.9°F4.9°C 65% Calm Calm -- 30.00 in1015.9 mb - 0.00 in0.0 mm 0.21 in5.3 mm
09:00 PM 52.0°F11.1°C 41.0°F5.0°C 66% Calm Calm -- 30.00 in1015.9 mb - 0.00 in0.0 mm 0.21 in5.3 mm
09:10 PM 51.6°F10.9°C 41.0°F5.0°C 67% Calm Calm -- 30.00 in1015.9 mb - 0.00 in0.0 mm 0.21 in5.3 mm
09:20 PM 51.4°F10.8°C 41.2°F5.1°C 68% 1.2 mph NNW1.9 kmh NNW 1.2 mph1.9 kmh 30.03 in1016.9 mb - 0.00 in0.0 mm 0.21 in5.3 mm
09:30 PM 51.1°F10.6°C 40.9°F4.9°C 68% 1.2 mph NW1.9 kmh NW 2.3 mph3.7 kmh 30.03 in1016.9 mb - 0.00 in0.0 mm 0.21 in5.3 mm
09:40 PM 50.7°F10.4°C 40.9°F4.9°C 69% 2.3 mph W3.7 kmh W 2.3 mph3.7 kmh 30.03 in1016.9 mb - 0.00 in0.0 mm 0.21 in5.3 mm
09:50 PM 49.9°F9.9°C 40.2°F4.6°C 69% 2.3 mph W3.7 kmh W 2.3 mph3.7 kmh 30.03 in1016.9 mb - 0.00 in0.0 mm 0.21 in5.3 mm
10:00 PM 49.6°F9.8°C 40.3°F4.6°C 70% Calm Calm -- 30.03 in1016.9 mb - 0.00 in0.0 mm 0.21 in5.3 mm
10:10 PM 49.3°F9.6°C 39.9°F4.4°C 70% 2.3 mph WNW3.7 kmh WNW 2.3 mph3.7 kmh 30.03 in1016.9 mb - 0.00 in0.0 mm 0.21 in5.3 mm
10:20 PM 49.3°F9.6°C 40.3°F4.6°C 71% 1.2 mph WNW1.9 kmh WNW 2.3 mph3.7 kmh 30.03 in1016.9 mb - 0.00 in0.0 mm 0.21 in5.3 mm
10:30 PM 49.2°F9.6°C 40.5°F4.7°C 72% 1.2 mph WNW1.9 kmh WNW 1.2 mph1.9 kmh 30.03 in1016.9 mb - 0.00 in0.0 mm 0.21 in5.3 mm
10:40 PM 48.9°F9.4°C 40.3°F4.6°C 72% 1.2 mph WNW1.9 kmh WNW 2.3 mph3.7 kmh 30.03 in1016.9 mb - 0.00 in0.0 mm 0.21 in5.3 mm
10:50 PM 48.7°F9.3°C 40.1°F4.5°C 72% Calm Calm 2.3 mph3.7 kmh 30.03 in1016.9 mb - 0.00 in0.0 mm 0.21 in5.3 mm
11:00 PM 48.6°F9.2°C 40.3°F4.6°C 73% 2.3 mph NW3.7 kmh NW 2.3 mph3.7 kmh 30.03 in1016.9 mb - 0.00 in0.0 mm 1.28 in32.5 mm
11:10 PM 48.7°F9.3°C 40.5°F4.7°C 73% 1.2 mph NW1.9 kmh NW 2.3 mph3.7 kmh 30.03 in1016.9 mb - 0.00 in0.0 mm 1.28 in32.5 mm
11:20 PM 48.6°F9.2°C 40.3°F4.6°C 73% Calm Calm -- 30.03 in1016.9 mb - 0.00 in0.0 mm 1.28 in32.5 mm
11:30 PM 48.7°F9.3°C 40.8°F4.9°C 74% 2.3 mph NW3.7 kmh NW 2.3 mph3.7 kmh 30.03 in1016.9 mb - 0.00 in0.0 mm 1.28 in32.5 mm
11:40 PM 48.4°F9.1°C 40.5°F4.7°C 74% Calm Calm -- 30.03 in1016.9 mb - 0.00 in0.0 mm 1.28 in32.5 mm
11:50 PM 48.0°F8.9°C 40.5°F4.7°C 75% 2.3 mph NW3.7 kmh NW 2.3 mph3.7 kmh 30.03 in1016.9 mb - 0.00 in0.0 mm 1.28 in32.5 mm